Terminal Aerodrome Forecast
Issued by NWS

Home | Current Version | Previous Version | Text Only | Print | Product List | Glossary On
Versions: 1 2 3 4 5 6 7 8 9 10 11 12 13 14 15 16 17 18 19 20 21 22 23 24 25 26 27 28 29 30 31 32 33 34 35 36 37 38 39 40 41
000
FTAK31 PAFA 270620 AAA
TAFAUN
TAF AMD
PAUN 270620Z 2706/2806 09020G25KT P6SM -SHSN BKN029 OVC040
     FM272200 10020KT P6SM -SHSN OVC100
     FM280300 09029KT P6SM OVC050=

USA.gov is the U.S. government's official web portal to all federal, state and local government web resources and services.